sensor_id;sensor_type;location;lat;lon;timestamp;P1;durP1;ratioP1;P2;durP2;ratioP2
4758;SDS011;2393;50.560;12.636;2022-11-20T00:01:39;4.70;;;3.78;;
4758;SDS011;2393;50.560;12.636;2022-11-20T00:04:08;8.25;;;5.32;;
4758;SDS011;2393;50.560;12.636;2022-11-20T00:06:38;3.83;;;3.53;;
4758;SDS011;2393;50.560;12.636;2022-11-20T00:09:08;5.93;;;4.18;;
4758;SDS011;2393;50.560;12.636;2022-11-20T00:11:38;4.47;;;3.42;;
4758;SDS011;2393;50.560;12.636;2022-11-20T00:14:08;11.85;;;4.30;;
4758;SDS011;2393;50.560;12.636;2022-11-20T00:16:39;9.80;;;4.60;;
4758;SDS011;2393;50.560;12.636;2022-11-20T00:19:09;6.13;;;3.67;;
4758;SDS011;2393;50.560;12.636;2022-11-20T00:21:38;3.03;;;2.83;;
4758;SDS011;2393;50.560;12.636;2022-11-20T00:24:08;4.38;;;3.50;;
4758;SDS011;2393;50.560;12.636;2022-11-20T00:26:37;6.05;;;3.35;;
4758;SDS011;2393;50.560;12.636;2022-11-20T00:29:06;3.33;;;3.00;;
4758;SDS011;2393;50.560;12.636;2022-11-20T00:31:38;3.45;;;3.10;;
4758;SDS011;2393;50.560;12.636;2022-11-20T00:34:06;8.32;;;4.85;;
4758;SDS011;2393;50.560;12.636;2022-11-20T00:36:35;7.13;;;3.28;;
4758;SDS011;2393;50.560;12.636;2022-11-20T00:39:04;5.07;;;3.90;;
4758;SDS011;2393;50.560;12.636;2022-11-20T00:41:33;3.83;;;3.50;;
4758;SDS011;2393;50.560;12.636;2022-11-20T00:44:01;4.97;;;3.08;;
4758;SDS011;2393;50.560;12.636;2022-11-20T00:46:30;6.97;;;3.92;;
4758;SDS011;2393;50.560;12.636;2022-11-20T00:49:00;3.83;;;3.60;;
4758;SDS011;2393;50.560;12.636;2022-11-20T00:51:29;3.63;;;2.75;;
4758;SDS011;2393;50.560;12.636;2022-11-20T00:53:58;3.38;;;3.10;;
4758;SDS011;2393;50.560;12.636;2022-11-20T00:56:28;6.90;;;3.92;;
4758;SDS011;2393;50.560;12.636;2022-11-20T00:58:58;4.35;;;2.95;;
4758;SDS011;2393;50.560;12.636;2022-11-20T01:01:27;6.43;;;3.28;;
4758;SDS011;2393;50.560;12.636;2022-11-20T01:03:57;5.40;;;3.60;;
4758;SDS011;2393;50.560;12.636;2022-11-20T01:06:29;4.97;;;3.38;;
4758;SDS011;2393;50.560;12.636;2022-11-20T01:09:00;4.40;;;3.67;;
4758;SDS011;2393;50.560;12.636;2022-11-20T01:11:31;3.22;;;2.92;;
4758;SDS011;2393;50.560;12.636;2022-11-20T01:14:02;3.97;;;3.35;;
4758;SDS011;2393;50.560;12.636;2022-11-20T01:16:32;5.55;;;3.88;;
4758;SDS011;2393;50.560;12.636;2022-11-20T01:19:03;4.20;;;2.72;;
4758;SDS011;2393;50.560;12.636;2022-11-20T01:21:34;4.50;;;2.88;;
4758;SDS011;2393;50.560;12.636;2022-11-20T01:24:04;3.17;;;2.78;;
4758;SDS011;2393;50.560;12.636;2022-11-20T01:26:35;4.63;;;4.15;;
4758;SDS011;2393;50.560;12.636;2022-11-20T01:29:05;6.72;;;2.90;;
4758;SDS011;2393;50.560;12.636;2022-11-20T01:31:35;3.33;;;3.13;;
4758;SDS011;2393;50.560;12.636;2022-11-20T01:34:05;2.65;;;2.55;;
4758;SDS011;2393;50.560;12.636;2022-11-20T01:36:36;8.43;;;3.90;;
4758;SDS011;2393;50.560;12.636;2022-11-20T01:39:07;7.03;;;4.82;;
4758;SDS011;2393;50.560;12.636;2022-11-20T01:41:39;2.72;;;2.58;;
4758;SDS011;2393;50.560;12.636;2022-11-20T01:47:16;3.85;;;3.55;;
4758;SDS011;2393;50.560;12.636;2022-11-20T01:49:50;3.30;;;3.08;;
4758;SDS011;2393;50.560;12.636;2022-11-20T01:52:24;3.30;;;3.00;;
4758;SDS011;2393;50.560;12.636;2022-11-20T01:54:59;4.68;;;4.20;;
4758;SDS011;2393;50.560;12.636;2022-11-20T01:57:32;3.55;;;3.35;;
4758;SDS011;2393;50.560;12.636;2022-11-20T02:00:04;16.52;;;4.05;;
4758;SDS011;2393;50.560;12.636;2022-11-20T02:02:39;3.85;;;3.25;;
4758;SDS011;2393;50.560;12.636;2022-11-20T02:05:12;3.58;;;3.17;;
4758;SDS011;2393;50.560;12.636;2022-11-20T02:07:48;5.45;;;2.85;;
4758;SDS011;2393;50.560;12.636;2022-11-20T02:10:17;3.92;;;3.47;;
4758;SDS011;2393;50.560;12.636;2022-11-20T02:12:47;3.40;;;3.10;;
4758;SDS011;2393;50.560;12.636;2022-11-20T02:15:34;1.73;;;1.70;;
4758;SDS011;2393;50.560;12.636;2022-11-20T02:18:03;4.18;;;3.60;;
4758;SDS011;2393;50.560;12.636;2022-11-20T02:20:33;6.78;;;4.03;;
4758;SDS011;2393;50.560;12.636;2022-11-20T02:23:03;6.93;;;3.97;;
4758;SDS011;2393;50.560;12.636;2022-11-20T02:25:38;4.53;;;3.65;;
4758;SDS011;2393;50.560;12.636;2022-11-20T02:28:09;8.93;;;3.25;;
4758;SDS011;2393;50.560;12.636;2022-11-20T02:30:38;7.00;;;3.15;;
4758;SDS011;2393;50.560;12.636;2022-11-20T02:33:07;3.80;;;2.65;;
4758;SDS011;2393;50.560;12.636;2022-11-20T02:35:40;3.83;;;3.53;;
4758;SDS011;2393;50.560;12.636;2022-11-20T02:38:12;3.63;;;3.00;;
4758;SDS011;2393;50.560;12.636;2022-11-20T02:40:44;3.65;;;3.00;;
4758;SDS011;2393;50.560;12.636;2022-11-20T02:43:20;4.57;;;3.30;;
4758;SDS011;2393;50.560;12.636;2022-11-20T02:45:49;2.90;;;2.58;;
4758;SDS011;2393;50.560;12.636;2022-11-20T02:48:17;6.32;;;2.88;;
4758;SDS011;2393;50.560;12.636;2022-11-20T02:50:46;4.25;;;3.33;;
4758;SDS011;2393;50.560;12.636;2022-11-20T02:53:15;3.38;;;2.58;;
4758;SDS011;2393;50.560;12.636;2022-11-20T02:55:45;3.63;;;3.40;;
4758;SDS011;2393;50.560;12.636;2022-11-20T02:58:14;6.57;;;3.00;;
4758;SDS011;2393;50.560;12.636;2022-11-20T03:00:43;3.10;;;2.80;;
4758;SDS011;2393;50.560;12.636;2022-11-20T03:03:12;3.05;;;1.67;;
4758;SDS011;2393;50.560;12.636;2022-11-20T03:05:41;3.58;;;3.28;;
4758;SDS011;2393;50.560;12.636;2022-11-20T03:08:11;2.33;;;2.20;;
4758;SDS011;2393;50.560;12.636;2022-11-20T03:10:40;3.95;;;2.95;;
4758;SDS011;2393;50.560;12.636;2022-11-20T03:13:11;6.18;;;2.83;;
4758;SDS011;2393;50.560;12.636;2022-11-20T03:15:40;7.20;;;2.85;;
4758;SDS011;2393;50.560;12.636;2022-11-20T03:18:10;3.25;;;2.95;;
4758;SDS011;2393;50.560;12.636;2022-11-20T03:20:40;4.53;;;3.00;;
4758;SDS011;2393;50.560;12.636;2022-11-20T03:23:09;2.25;;;1.88;;
4758;SDS011;2393;50.560;12.636;2022-11-20T03:25:39;3.15;;;2.60;;
4758;SDS011;2393;50.560;12.636;2022-11-20T03:28:09;3.17;;;2.97;;
4758;SDS011;2393;50.560;12.636;2022-11-20T03:30:40;2.25;;;2.15;;
4758;SDS011;2393;50.560;12.636;2022-11-20T03:33:10;2.08;;;2.08;;
4758;SDS011;2393;50.560;12.636;2022-11-20T03:35:39;2.25;;;2.05;;
4758;SDS011;2393;50.560;12.636;2022-11-20T03:38:08;3.20;;;2.90;;
4758;SDS011;2393;50.560;12.636;2022-11-20T03:40:36;2.50;;;2.35;;
4758;SDS011;2393;50.560;12.636;2022-11-20T03:43:06;3.20;;;2.60;;
4758;SDS011;2393;50.560;12.636;2022-11-20T03:45:35;2.30;;;2.10;;
4758;SDS011;2393;50.560;12.636;2022-11-20T03:48:06;2.20;;;2.10;;
4758;SDS011;2393;50.560;12.636;2022-11-20T03:50:37;2.40;;;2.15;;
4758;SDS011;2393;50.560;12.636;2022-11-20T03:53:06;2.35;;;2.25;;
4758;SDS011;2393;50.560;12.636;2022-11-20T03:55:36;3.47;;;3.17;;
4758;SDS011;2393;50.560;12.636;2022-11-20T03:58:07;1.90;;;1.83;;
4758;SDS011;2393;50.560;12.636;2022-11-20T04:00:36;2.88;;;2.75;;
4758;SDS011;2393;50.560;12.636;2022-11-20T04:03:07;5.53;;;2.60;;
4758;SDS011;2393;50.560;12.636;2022-11-20T04:05:37;3.58;;;2.75;;
4758;SDS011;2393;50.560;12.636;2022-11-20T04:08:06;5.85;;;2.95;;
4758;SDS011;2393;50.560;12.636;2022-11-20T04:10:35;2.10;;;1.90;;
4758;SDS011;2393;50.560;12.636;2022-11-20T04:13:05;3.03;;;2.80;;
4758;SDS011;2393;50.560;12.636;2022-11-20T04:15:35;2.25;;;2.20;;
4758;SDS011;2393;50.560;12.636;2022-11-20T04:18:05;1.63;;;1.52;;
4758;SDS011;2393;50.560;12.636;2022-11-20T04:20:35;3.00;;;2.90;;
4758;SDS011;2393;50.560;12.636;2022-11-20T04:23:03;1.80;;;1.80;;
4758;SDS011;2393;50.560;12.636;2022-11-20T04:25:32;5.03;;;2.95;;
4758;SDS011;2393;50.560;12.636;2022-11-20T04:28:00;2.55;;;2.35;;
4758;SDS011;2393;50.560;12.636;2022-11-20T04:30:29;2.55;;;2.38;;
4758;SDS011;2393;50.560;12.636;2022-11-20T04:32:59;2.55;;;2.45;;
4758;SDS011;2393;50.560;12.636;2022-11-20T04:35:28;2.25;;;2.15;;
4758;SDS011;2393;50.560;12.636;2022-11-20T04:37:58;3.25;;;3.05;;
4758;SDS011;2393;50.560;12.636;2022-11-20T04:40:27;2.83;;;2.45;;
4758;SDS011;2393;50.560;12.636;2022-11-20T04:42:56;1.73;;;1.73;;
4758;SDS011;2393;50.560;12.636;2022-11-20T04:45:25;1.80;;;1.70;;
4758;SDS011;2393;50.560;12.636;2022-11-20T04:47:54;2.60;;;2.42;;
4758;SDS011;2393;50.560;12.636;2022-11-20T04:50:22;2.65;;;2.45;;
4758;SDS011;2393;50.560;12.636;2022-11-20T04:52:51;1.90;;;1.88;;
4758;SDS011;2393;50.560;12.636;2022-11-20T04:55:21;2.28;;;2.17;;
4758;SDS011;2393;50.560;12.636;2022-11-20T04:57:50;3.08;;;2.95;;
4758;SDS011;2393;50.560;12.636;2022-11-20T05:00:19;2.72;;;2.20;;
4758;SDS011;2393;50.560;12.636;2022-11-20T05:02:48;2.90;;;2.63;;
4758;SDS011;2393;50.560;12.636;2022-11-20T05:05:16;1.42;;;1.30;;
4758;SDS011;2393;50.560;12.636;2022-11-20T05:07:46;2.88;;;2.67;;
4758;SDS011;2393;50.560;12.636;2022-11-20T05:10:15;2.70;;;2.35;;
4758;SDS011;2393;50.560;12.636;2022-11-20T05:12:45;1.75;;;1.65;;
4758;SDS011;2393;50.560;12.636;2022-11-20T05:15:14;3.28;;;3.00;;
4758;SDS011;2393;50.560;12.636;2022-11-20T05:17:46;2.17;;;2.15;;
4758;SDS011;2393;50.560;12.636;2022-11-20T05:20:15;4.57;;;2.33;;
4758;SDS011;2393;50.560;12.636;2022-11-20T05:22:44;2.53;;;2.42;;
4758;SDS011;2393;50.560;12.636;2022-11-20T05:25:13;2.15;;;1.95;;
4758;SDS011;2393;50.560;12.636;2022-11-20T05:27:42;1.95;;;1.85;;
4758;SDS011;2393;50.560;12.636;2022-11-20T05:30:13;2.13;;;2.13;;
4758;SDS011;2393;50.560;12.636;2022-11-20T05:32:42;3.38;;;2.63;;
4758;SDS011;2393;50.560;12.636;2022-11-20T05:35:10;2.40;;;2.08;;
4758;SDS011;2393;50.560;12.636;2022-11-20T05:37:39;1.83;;;1.75;;
4758;SDS011;2393;50.560;12.636;2022-11-20T05:40:09;1.55;;;1.45;;
4758;SDS011;2393;50.560;12.636;2022-11-20T05:42:39;1.95;;;1.85;;
4758;SDS011;2393;50.560;12.636;2022-11-20T05:45:11;1.85;;;1.75;;
4758;SDS011;2393;50.560;12.636;2022-11-20T05:47:40;3.35;;;2.33;;
4758;SDS011;2393;50.560;12.636;2022-11-20T05:50:08;1.52;;;1.52;;
4758;SDS011;2393;50.560;12.636;2022-11-20T05:52:37;2.38;;;2.10;;
4758;SDS011;2393;50.560;12.636;2022-11-20T05:55:06;2.05;;;2.00;;
4758;SDS011;2393;50.560;12.636;2022-11-20T05:57:36;2.38;;;1.90;;
4758;SDS011;2393;50.560;12.636;2022-11-20T06:00:05;2.05;;;1.95;;
4758;SDS011;2393;50.560;12.636;2022-11-20T06:02:37;5.68;;;1.70;;
4758;SDS011;2393;50.560;12.636;2022-11-20T06:05:06;2.65;;;2.47;;
4758;SDS011;2393;50.560;12.636;2022-11-20T06:07:35;2.13;;;2.13;;
4758;SDS011;2393;50.560;12.636;2022-11-20T06:10:04;3.50;;;3.25;;
4758;SDS011;2393;50.560;12.636;2022-11-20T06:12:33;1.42;;;1.42;;
4758;SDS011;2393;50.560;12.636;2022-11-20T06:15:02;1.85;;;1.75;;
4758;SDS011;2393;50.560;12.636;2022-11-20T06:17:31;2.60;;;2.08;;
4758;SDS011;2393;50.560;12.636;2022-11-20T06:20:01;4.10;;;2.30;;
4758;SDS011;2393;50.560;12.636;2022-11-20T06:22:31;2.70;;;2.53;;
4758;SDS011;2393;50.560;12.636;2022-11-20T06:25:01;1.70;;;1.60;;
4758;SDS011;2393;50.560;12.636;2022-11-20T06:27:30;2.13;;;1.92;;
4758;SDS011;2393;50.560;12.636;2022-11-20T06:30:00;1.70;;;1.60;;
4758;SDS011;2393;50.560;12.636;2022-11-20T06:32:30;3.70;;;2.30;;
4758;SDS011;2393;50.560;12.636;2022-11-20T06:34:59;2.78;;;1.30;;
4758;SDS011;2393;50.560;12.636;2022-11-20T06:37:31;3.22;;;2.22;;
4758;SDS011;2393;50.560;12.636;2022-11-20T06:40:00;2.60;;;2.40;;
4758;SDS011;2393;50.560;12.636;2022-11-20T06:42:29;1.95;;;1.95;;
4758;SDS011;2393;50.560;12.636;2022-11-20T06:44:59;1.60;;;1.50;;
4758;SDS011;2393;50.560;12.636;2022-11-20T06:47:31;2.35;;;2.15;;
4758;SDS011;2393;50.560;12.636;2022-11-20T06:49:59;3.97;;;2.03;;
4758;SDS011;2393;50.560;12.636;2022-11-20T06:52:30;2.58;;;2.33;;
4758;SDS011;2393;50.560;12.636;2022-11-20T06:54:58;1.92;;;1.92;;
4758;SDS011;2393;50.560;12.636;2022-11-20T06:57:27;2.25;;;2.15;;
4758;SDS011;2393;50.560;12.636;2022-11-20T06:59:56;2.00;;;1.90;;
4758;SDS011;2393;50.560;12.636;2022-11-20T07:02:24;1.70;;;1.60;;
4758;SDS011;2393;50.560;12.636;2022-11-20T07:04:53;4.53;;;3.03;;
4758;SDS011;2393;50.560;12.636;2022-11-20T07:07:22;2.38;;;2.28;;
4758;SDS011;2393;50.560;12.636;2022-11-20T07:09:51;2.67;;;1.85;;
4758;SDS011;2393;50.560;12.636;2022-11-20T07:12:20;4.10;;;2.15;;
4758;SDS011;2393;50.560;12.636;2022-11-20T07:14:48;3.80;;;2.25;;
4758;SDS011;2393;50.560;12.636;2022-11-20T07:17:17;6.25;;;2.50;;
4758;SDS011;2393;50.560;12.636;2022-11-20T07:19:45;2.33;;;2.22;;
4758;SDS011;2393;50.560;12.636;2022-11-20T07:22:14;5.35;;;3.88;;
4758;SDS011;2393;50.560;12.636;2022-11-20T07:24:44;17.85;;;9.27;;
4758;SDS011;2393;50.560;12.636;2022-11-20T07:27:12;14.05;;;8.15;;
4758;SDS011;2393;50.560;12.636;2022-11-20T07:29:41;10.10;;;6.65;;
4758;SDS011;2393;50.560;12.636;2022-11-20T07:32:09;14.40;;;7.75;;
4758;SDS011;2393;50.560;12.636;2022-11-20T07:34:39;26.33;;;12.30;;
4758;SDS011;2393;50.560;12.636;2022-11-20T07:37:14;29.50;;;12.35;;
4758;SDS011;2393;50.560;12.636;2022-11-20T07:39:52;27.58;;;14.50;;
4758;SDS011;2393;50.560;12.636;2022-11-20T07:42:22;30.33;;;12.70;;
4758;SDS011;2393;50.560;12.636;2022-11-20T07:44:55;34.67;;;13.35;;
4758;SDS011;2393;50.560;12.636;2022-11-20T07:47:26;16.73;;;7.20;;
4758;SDS011;2393;50.560;12.636;2022-11-20T07:49:55;18.25;;;7.45;;
4758;SDS011;2393;50.560;12.636;2022-11-20T07:52:23;18.33;;;6.00;;
4758;SDS011;2393;50.560;12.636;2022-11-20T07:54:53;7.90;;;3.85;;
4758;SDS011;2393;50.560;12.636;2022-11-20T07:57:22;12.25;;;6.85;;
4758;SDS011;2393;50.560;12.636;2022-11-20T07:59:54;10.63;;;6.88;;
4758;SDS011;2393;50.560;12.636;2022-11-20T08:02:22;51.15;;;19.88;;
4758;SDS011;2393;50.560;12.636;2022-11-20T08:04:51;65.55;;;24.65;;
4758;SDS011;2393;50.560;12.636;2022-11-20T08:07:21;27.38;;;11.88;;
4758;SDS011;2393;50.560;12.636;2022-11-20T08:09:50;32.42;;;10.38;;
4758;SDS011;2393;50.560;12.636;2022-11-20T08:12:23;43.00;;;18.80;;
4758;SDS011;2393;50.560;12.636;2022-11-20T08:15:09;37.65;;;13.05;;
4758;SDS011;2393;50.560;12.636;2022-11-20T08:17:39;21.05;;;8.57;;
4758;SDS011;2393;50.560;12.636;2022-11-20T08:20:08;8.32;;;5.82;;
4758;SDS011;2393;50.560;12.636;2022-11-20T08:22:37;6.72;;;5.10;;
4758;SDS011;2393;50.560;12.636;2022-11-20T08:25:06;4.30;;;2.92;;
4758;SDS011;2393;50.560;12.636;2022-11-20T08:27:36;10.38;;;4.38;;
4758;SDS011;2393;50.560;12.636;2022-11-20T08:30:08;10.15;;;5.15;;
4758;SDS011;2393;50.560;12.636;2022-11-20T08:32:37;7.03;;;3.85;;
4758;SDS011;2393;50.560;12.636;2022-11-20T08:35:06;8.05;;;4.72;;
4758;SDS011;2393;50.560;12.636;2022-11-20T08:37:36;10.73;;;4.07;;
4758;SDS011;2393;50.560;12.636;2022-11-20T08:40:09;15.75;;;8.27;;
4758;SDS011;2393;50.560;12.636;2022-11-20T08:42:49;9.30;;;5.97;;
4758;SDS011;2393;50.560;12.636;2022-11-20T08:45:19;9.70;;;4.70;;
4758;SDS011;2393;50.560;12.636;2022-11-20T08:47:48;8.23;;;4.68;;
4758;SDS011;2393;50.560;12.636;2022-11-20T08:50:16;13.38;;;6.32;;
4758;SDS011;2393;50.560;12.636;2022-11-20T08:52:45;8.73;;;5.10;;
4758;SDS011;2393;50.560;12.636;2022-11-20T08:55:14;6.28;;;3.60;;
4758;SDS011;2393;50.560;12.636;2022-11-20T08:57:43;5.95;;;3.58;;
4758;SDS011;2393;50.560;12.636;2022-11-20T09:00:18;9.40;;;4.22;;
4758;SDS011;2393;50.560;12.636;2022-11-20T09:02:47;11.10;;;4.82;;
4758;SDS011;2393;50.560;12.636;2022-11-20T09:05:15;6.72;;;3.90;;
4758;SDS011;2393;50.560;12.636;2022-11-20T09:07:44;12.20;;;4.90;;
4758;SDS011;2393;50.560;12.636;2022-11-20T09:10:14;9.85;;;5.00;;
4758;SDS011;2393;50.560;12.636;2022-11-20T09:12:51;38.80;;;17.67;;
4758;SDS011;2393;50.560;12.636;2022-11-20T09:15:23;8.68;;;5.40;;
4758;SDS011;2393;50.560;12.636;2022-11-20T09:17:54;5.90;;;2.88;;
4758;SDS011;2393;50.560;12.636;2022-11-20T09:20:26;3.38;;;2.80;;
4758;SDS011;2393;50.560;12.636;2022-11-20T09:22:56;6.13;;;4.07;;
4758;SDS011;2393;50.560;12.636;2022-11-20T09:25:26;20.27;;;11.70;;
4758;SDS011;2393;50.560;12.636;2022-11-20T09:27:55;12.35;;;5.75;;
4758;SDS011;2393;50.560;12.636;2022-11-20T09:30:26;7.45;;;4.15;;
4758;SDS011;2393;50.560;12.636;2022-11-20T09:32:55;9.57;;;5.65;;
4758;SDS011;2393;50.560;12.636;2022-11-20T09:35:24;3.78;;;3.38;;
4758;SDS011;2393;50.560;12.636;2022-11-20T09:37:53;4.93;;;3.60;;
4758;SDS011;2393;50.560;12.636;2022-11-20T09:40:22;4.40;;;2.90;;
4758;SDS011;2393;50.560;12.636;2022-11-20T09:42:54;4.43;;;3.67;;
4758;SDS011;2393;50.560;12.636;2022-11-20T09:45:34;6.05;;;2.95;;
4758;SDS011;2393;50.560;12.636;2022-11-20T09:48:18;5.82;;;3.50;;
4758;SDS011;2393;50.560;12.636;2022-11-20T09:50:57;4.45;;;2.85;;
4758;SDS011;2393;50.560;12.636;2022-11-20T09:53:37;10.70;;;7.40;;
4758;SDS011;2393;50.560;12.636;2022-11-20T09:56:19;7.13;;;4.25;;
4758;SDS011;2393;50.560;12.636;2022-11-20T09:58:49;9.40;;;4.05;;
4758;SDS011;2393;50.560;12.636;2022-11-20T10:01:21;5.93;;;3.97;;
4758;SDS011;2393;50.560;12.636;2022-11-20T10:03:54;6.40;;;3.00;;
4758;SDS011;2393;50.560;12.636;2022-11-20T10:06:28;4.30;;;3.47;;
4758;SDS011;2393;50.560;12.636;2022-11-20T10:09:03;6.60;;;3.25;;
4758;SDS011;2393;50.560;12.636;2022-11-20T10:11:46;7.45;;;4.40;;
4758;SDS011;2393;50.560;12.636;2022-11-20T10:14:26;4.00;;;2.92;;
4758;SDS011;2393;50.560;12.636;2022-11-20T10:17:08;6.25;;;3.22;;
4758;SDS011;2393;50.560;12.636;2022-11-20T10:19:56;11.35;;;7.18;;
4758;SDS011;2393;50.560;12.636;2022-11-20T10:22:42;4.10;;;2.88;;
4758;SDS011;2393;50.560;12.636;2022-11-20T10:25:18;5.55;;;3.58;;
4758;SDS011;2393;50.560;12.636;2022-11-20T10:28:02;5.30;;;3.28;;
4758;SDS011;2393;50.560;12.636;2022-11-20T10:30:46;5.68;;;3.28;;
4758;SDS011;2393;50.560;12.636;2022-11-20T10:33:23;2.83;;;2.22;;
4758;SDS011;2393;50.560;12.636;2022-11-20T10:36:14;4.53;;;2.80;;
4758;SDS011;2393;50.560;12.636;2022-11-20T10:38:48;8.30;;;4.60;;
4758;SDS011;2393;50.560;12.636;2022-11-20T10:41:22;5.78;;;2.50;;
4758;SDS011;2393;50.560;12.636;2022-11-20T10:44:00;4.15;;;2.47;;
4758;SDS011;2393;50.560;12.636;2022-11-20T10:46:37;3.53;;;2.55;;
4758;SDS011;2393;50.560;12.636;2022-11-20T10:49:12;4.63;;;2.72;;
4758;SDS011;2393;50.560;12.636;2022-11-20T10:51:46;6.45;;;4.57;;
4758;SDS011;2393;50.560;12.636;2022-11-20T10:54:29;4.30;;;2.67;;
4758;SDS011;2393;50.560;12.636;2022-11-20T10:57:06;8.10;;;4.10;;
4758;SDS011;2393;50.560;12.636;2022-11-20T10:59:48;6.65;;;3.90;;
4758;SDS011;2393;50.560;12.636;2022-11-20T11:02:48;4.95;;;3.33;;
4758;SDS011;2393;50.560;12.636;2022-11-20T11:05:21;4.05;;;2.60;;
4758;SDS011;2393;50.560;12.636;2022-11-20T11:08:00;5.50;;;3.63;;
4758;SDS011;2393;50.560;12.636;2022-11-20T11:10:32;4.80;;;2.80;;
4758;SDS011;2393;50.560;12.636;2022-11-20T11:13:17;7.00;;;3.88;;
4758;SDS011;2393;50.560;12.636;2022-11-20T11:15:47;9.52;;;4.30;;
4758;SDS011;2393;50.560;12.636;2022-11-20T11:18:22;5.93;;;4.43;;
4758;SDS011;2393;50.560;12.636;2022-11-20T11:20:54;28.30;;;13.55;;
4758;SDS011;2393;50.560;12.636;2022-11-20T11:23:29;15.80;;;8.75;;
4758;SDS011;2393;50.560;12.636;2022-11-20T11:26:00;10.73;;;4.28;;
4758;SDS011;2393;50.560;12.636;2022-11-20T11:28:30;6.80;;;3.80;;
4758;SDS011;2393;50.560;12.636;2022-11-20T11:30:59;6.85;;;4.28;;
4758;SDS011;2393;50.560;12.636;2022-11-20T11:33:28;7.53;;;3.90;;
4758;SDS011;2393;50.560;12.636;2022-11-20T11:35:59;9.13;;;5.45;;
4758;SDS011;2393;50.560;12.636;2022-11-20T11:38:29;8.45;;;4.78;;
4758;SDS011;2393;50.560;12.636;2022-11-20T11:41:03;18.48;;;6.30;;
4758;SDS011;2393;50.560;12.636;2022-11-20T11:43:33;91.72;;;33.47;;
4758;SDS011;2393;50.560;12.636;2022-11-20T11:46:24;9.77;;;6.25;;
4758;SDS011;2393;50.560;12.636;2022-11-20T11:48:57;9.95;;;5.05;;
4758;SDS011;2393;50.560;12.636;2022-11-20T11:51:29;5.93;;;4.20;;
4758;SDS011;2393;50.560;12.636;2022-11-20T11:54:05;5.60;;;3.67;;
4758;SDS011;2393;50.560;12.636;2022-11-20T11:56:44;8.80;;;6.15;;
4758;SDS011;2393;50.560;12.636;2022-11-20T11:59:16;7.68;;;4.53;;
4758;SDS011;2393;50.560;12.636;2022-11-20T12:01:51;41.95;;;23.27;;
4758;SDS011;2393;50.560;12.636;2022-11-20T12:04:27;13.80;;;8.45;;
4758;SDS011;2393;50.560;12.636;2022-11-20T12:07:10;14.00;;;6.47;;
4758;SDS011;2393;50.560;12.636;2022-11-20T12:10:03;10.75;;;6.28;;
4758;SDS011;2393;50.560;12.636;2022-11-20T12:12:35;12.43;;;5.72;;
4758;SDS011;2393;50.560;12.636;2022-11-20T12:15:10;11.98;;;6.53;;
4758;SDS011;2393;50.560;12.636;2022-11-20T12:17:40;9.02;;;5.25;;
4758;SDS011;2393;50.560;12.636;2022-11-20T12:20:11;16.05;;;7.53;;
4758;SDS011;2393;50.560;12.636;2022-11-20T12:22:43;24.75;;;14.38;;
4758;SDS011;2393;50.560;12.636;2022-11-20T12:25:20;31.13;;;16.77;;
4758;SDS011;2393;50.560;12.636;2022-11-20T12:27:58;9.95;;;6.50;;
4758;SDS011;2393;50.560;12.636;2022-11-20T12:30:48;16.10;;;6.68;;
4758;SDS011;2393;50.560;12.636;2022-11-20T12:33:38;17.67;;;7.50;;
4758;SDS011;2393;50.560;12.636;2022-11-20T12:36:25;16.13;;;7.97;;
4758;SDS011;2393;50.560;12.636;2022-11-20T12:39:14;12.18;;;7.35;;
4758;SDS011;2393;50.560;12.636;2022-11-20T12:42:13;15.45;;;9.80;;
4758;SDS011;2393;50.560;12.636;2022-11-20T12:48:19;40.10;;;22.35;;
4758;SDS011;2393;50.560;12.636;2022-11-20T12:51:18;38.55;;;22.08;;
4758;SDS011;2393;50.560;12.636;2022-11-20T12:54:02;17.10;;;8.77;;
4758;SDS011;2393;50.560;12.636;2022-11-20T12:56:52;31.25;;;17.50;;
4758;SDS011;2393;50.560;12.636;2022-11-20T12:59:33;37.78;;;17.73;;
4758;SDS011;2393;50.560;12.636;2022-11-20T13:02:33;79.22;;;33.83;;
4758;SDS011;2393;50.560;12.636;2022-11-20T13:05:18;94.03;;;38.15;;
4758;SDS011;2393;50.560;12.636;2022-11-20T13:07:50;39.55;;;21.38;;
4758;SDS011;2393;50.560;12.636;2022-11-20T13:10:22;16.95;;;7.95;;
4758;SDS011;2393;50.560;12.636;2022-11-20T13:12:59;16.60;;;8.75;;
4758;SDS011;2393;50.560;12.636;2022-11-20T13:15:38;14.48;;;7.45;;
4758;SDS011;2393;50.560;12.636;2022-11-20T13:18:12;13.30;;;6.13;;
4758;SDS011;2393;50.560;12.636;2022-11-20T13:20:41;10.80;;;6.30;;
4758;SDS011;2393;50.560;12.636;2022-11-20T13:23:11;16.05;;;8.05;;
4758;SDS011;2393;50.560;12.636;2022-11-20T13:25:50;54.88;;;29.35;;
4758;SDS011;2393;50.560;12.636;2022-11-20T13:28:28;19.02;;;9.18;;
4758;SDS011;2393;50.560;12.636;2022-11-20T13:30:57;17.23;;;9.27;;
4758;SDS011;2393;50.560;12.636;2022-11-20T13:33:30;11.30;;;6.15;;
4758;SDS011;2393;50.560;12.636;2022-11-20T13:36:00;11.98;;;6.97;;
4758;SDS011;2393;50.560;12.636;2022-11-20T13:38:40;16.65;;;10.27;;
4758;SDS011;2393;50.560;12.636;2022-11-20T13:41:11;14.32;;;7.60;;
4758;SDS011;2393;50.560;12.636;2022-11-20T13:44:04;35.92;;;16.65;;
4758;SDS011;2393;50.560;12.636;2022-11-20T13:46:39;21.73;;;12.27;;
4758;SDS011;2393;50.560;12.636;2022-11-20T13:49:14;16.58;;;7.95;;
4758;SDS011;2393;50.560;12.636;2022-11-20T13:51:46;19.48;;;11.50;;
4758;SDS011;2393;50.560;12.636;2022-11-20T13:54:21;39.65;;;17.63;;
4758;SDS011;2393;50.560;12.636;2022-11-20T13:57:27;13.88;;;6.63;;
4758;SDS011;2393;50.560;12.636;2022-11-20T14:00:09;35.90;;;20.05;;
4758;SDS011;2393;50.560;12.636;2022-11-20T14:02:40;38.25;;;16.23;;
4758;SDS011;2393;50.560;12.636;2022-11-20T14:05:13;65.22;;;22.95;;
4758;SDS011;2393;50.560;12.636;2022-11-20T14:07:50;101.10;;;29.25;;
4758;SDS011;2393;50.560;12.636;2022-11-20T14:10:19;62.92;;;19.73;;
4758;SDS011;2393;50.560;12.636;2022-11-20T14:12:57;66.03;;;18.17;;
4758;SDS011;2393;50.560;12.636;2022-11-20T14:15:38;17.10;;;8.68;;
4758;SDS011;2393;50.560;12.636;2022-11-20T14:18:11;22.35;;;10.68;;
4758;SDS011;2393;50.560;12.636;2022-11-20T14:20:42;8.63;;;5.50;;
4758;SDS011;2393;50.560;12.636;2022-11-20T14:23:11;23.58;;;10.73;;
4758;SDS011;2393;50.560;12.636;2022-11-20T14:25:41;16.80;;;8.70;;
4758;SDS011;2393;50.560;12.636;2022-11-20T14:28:18;14.52;;;6.40;;
4758;SDS011;2393;50.560;12.636;2022-11-20T14:30:54;31.15;;;14.95;;
4758;SDS011;2393;50.560;12.636;2022-11-20T14:33:25;99.88;;;43.83;;
4758;SDS011;2393;50.560;12.636;2022-11-20T14:35:55;16.50;;;8.05;;
4758;SDS011;2393;50.560;12.636;2022-11-20T14:38:26;39.35;;;23.75;;
4758;SDS011;2393;50.560;12.636;2022-11-20T14:41:05;27.35;;;17.45;;
4758;SDS011;2393;50.560;12.636;2022-11-20T14:43:34;16.27;;;9.88;;
4758;SDS011;2393;50.560;12.636;2022-11-20T14:46:06;15.00;;;9.25;;
4758;SDS011;2393;50.560;12.636;2022-11-20T14:48:37;9.43;;;6.10;;
4758;SDS011;2393;50.560;12.636;2022-11-20T14:51:08;14.25;;;7.90;;
4758;SDS011;2393;50.560;12.636;2022-11-20T14:53:38;12.68;;;5.72;;
4758;SDS011;2393;50.560;12.636;2022-11-20T14:56:07;17.45;;;10.63;;
4758;SDS011;2393;50.560;12.636;2022-11-20T14:58:36;20.15;;;12.20;;
4758;SDS011;2393;50.560;12.636;2022-11-20T15:01:06;17.33;;;9.30;;
4758;SDS011;2393;50.560;12.636;2022-11-20T15:03:40;13.32;;;6.18;;
4758;SDS011;2393;50.560;12.636;2022-11-20T15:06:10;18.35;;;10.75;;
4758;SDS011;2393;50.560;12.636;2022-11-20T15:08:39;22.67;;;8.43;;
4758;SDS011;2393;50.560;12.636;2022-11-20T15:11:19;14.55;;;7.97;;
4758;SDS011;2393;50.560;12.636;2022-11-20T15:13:53;11.40;;;7.15;;
4758;SDS011;2393;50.560;12.636;2022-11-20T15:16:23;13.38;;;6.88;;
4758;SDS011;2393;50.560;12.636;2022-11-20T15:18:54;9.57;;;7.03;;
4758;SDS011;2393;50.560;12.636;2022-11-20T15:21:22;15.18;;;9.60;;
4758;SDS011;2393;50.560;12.636;2022-11-20T15:23:51;14.25;;;7.40;;
4758;SDS011;2393;50.560;12.636;2022-11-20T15:26:22;14.93;;;8.57;;
4758;SDS011;2393;50.560;12.636;2022-11-20T15:28:53;17.48;;;9.02;;
4758;SDS011;2393;50.560;12.636;2022-11-20T15:31:23;27.33;;;15.70;;
4758;SDS011;2393;50.560;12.636;2022-11-20T15:33:51;16.50;;;8.00;;